M I D A S
Marine Information and Data Acquisition System
Tripno 1609 of the Zeeleeuw from 2008-11-12 08:00:00 to 2008-11-12 17:00:00
Back to CruiseResearch ActivitiesStationsMapUnderway DataData graphs

EquipmentUnitsComment
TimeDGPSUTC
LatitudeDGPSDM.mWGS84
LongitudeDGPSDM.mWGS84
HeadingGyrodeg 
SOGDGPSknotsSpeed over ground
COGDGPSdegCourse over ground
DepthEcho soundermeters200 kHz
Missing or incorrect values are displayed as -999
Navigation data collected by the RV Zeeleeuw from 2008-11-12 08:00:00 to 2008-11-12 17:00:00
Time Latitude Longitude Heading SOG COG Depth
2008-11-12 08:02:10 51°13.623 2°56.048 122.5   176 -999
2008-11-12 08:04:10 51°13.624 2°56.048 123.4   7 -999
2008-11-12 08:05:20 51°13.624 2°56.047 124.2   143 -999
2008-11-12 08:06:34 51°13.623 2°56.048 124.2 0.1 176 -999
2008-11-12 08:07:40 51°13.624 2°56.048 123 0.1 340 -999
2008-11-12 08:08:39 51°13.624 2°56.047 123.3 0.1 359 -999
2008-11-12 08:10:30 51°13.624 2°56.048 123.2   195 -999
2008-11-12 08:12:10 51°13.625 2°56.047 123.5 0.1 354 -999
2008-11-12 08:13:49 51°13.624 2°56.048 124.7 0.1 165 -999
2008-11-12 08:15:00 51°13.624 2°56.048 122.9   256 -999
2008-11-12 08:16:50 51°13.624 2°56.048 122.9   4 -999
2008-11-12 08:18:50 51°13.623 2°56.048 123.9   26 -999
2008-11-12 08:20:30 51°13.622 2°56.047 123   90 -999
2008-11-12 08:22:30 51°13.624 2°56.047 123.4   316 -999
2008-11-12 08:24:20 51°13.624 2°56.048 123.9   90 -999
2008-11-12 08:26:20 51°13.627 2°56.048 123   236 -999
2008-11-12 08:28:20 51°13.625 2°56.047 123.2   250 -999
2008-11-12 08:30:20 51°13.623 2°56.047 123.7   58 -999
2008-11-12 08:32:20 51°13.624 2°56.048 123.5   235 -999
2008-11-12 08:34:20 51°13.625 2°56.048 123.9   277 -999
2008-11-12 08:36:20 51°13.625 2°56.048 124   149 -999
2008-11-12 08:38:20 51°13.624 2°56.047 123.2   203 -999
2008-11-12 08:40:20 51°13.625 2°56.047 123.7   169 -999
2008-11-12 08:42:20 51°13.626 2°56.047 124   266 -999
2008-11-12 08:44:20 51°13.625 2°56.048 123.9   238 -999
2008-11-12 08:46:20 51°13.62 2°56.049 124.2   249 -999
2008-11-12 08:48:20 51°13.622 2°56.049 124.2   227 -999
2008-11-12 08:50:20 51°13.623 2°56.048 124.2   269 -999
2008-11-12 08:52:20 51°13.623 2°56.048 124.7   312 -999
2008-11-12 08:54:20 51°13.623 2°56.047 124.9   100 -999
2008-11-12 08:56:20 51°13.623 2°56.048 124.2   91 -999
2008-11-12 08:57:40 51°13.622 2°56.048 125.5 0.1 139 -999
2008-11-12 08:59:30 51°13.623 2°56.049 123.2   186 -999
2008-11-12 09:00:50 51°13.623 2°56.047 118.7   230 -999
2008-11-12 09:01:30 51°13.63 2°56.025 114.9 0.69 302 -999
2008-11-12 09:02:10 51°13.647 2°55.977 114.4 3.5 301 -999
2008-11-12 09:02:50 51°13.662 2°55.912 114.4 3.5 301 -999
2008-11-12 09:03:30 51°13.673 2°55.848 102.5 3.79 286 -999
2008-11-12 09:04:10 51°13.681 2°55.795 98 2.89 283 -999
2008-11-12 09:04:50 51°13.686 2°55.759 98 2.89 283 -999
2008-11-12 09:05:30 51°13.69 2°55.749 94.5 1.39 285 -999
2008-11-12 09:06:10 51°13.703 2°55.77 57 1.89 42 -999
2008-11-12 09:06:50 51°13.72 2°55.775 57 1.89 42 -999
2008-11-12 09:07:30 51°13.714 2°55.769 12.1 0.4 288 -999
2008-11-12 09:08:10 51°13.719 2°55.759 353.1 1.1 328 -999
2008-11-12 09:08:50 51°13.744 2°55.726 353.1 1.1 328 -999
2008-11-12 09:09:30 51°13.783 2°55.678 322.8 4.09 321 -999
2008-11-12 09:10:10 51°13.834 2°55.633 330.6 5.5 332 -999
2008-11-12 09:10:50 51°13.894 2°55.586 330.6 5.5 332 -999
2008-11-12 09:11:30 51°13.953 2°55.543 335.3 6.2 334 -999
2008-11-12 09:12:10 51°14.008 2°55.509 337.8 5.2 339 -999
2008-11-12 09:12:50 51°14.06 2°55.474 337.8 5.2 339 -999
2008-11-12 09:13:30 51°14.118 2°55.428 334.8 5.4 335 -999
2008-11-12 09:14:10 51°14.187 2°55.362 328.8 7.4 327 -999
2008-11-12 09:14:50 51°14.253 2°55.274 328.8 7.4 327 -999
2008-11-12 09:15:30 51°14.313 2°55.173 316.8 7.9 317 -999
2008-11-12 09:16:10 51°14.368 2°55.066 306.8 7.9 308 -999
2008-11-12 09:16:50 51°14.436 2°54.972 306.8 7.9 308 -999
2008-11-12 09:17:30 51°14.515 2°54.883 316.5 8.5 322 -999
2008-11-12 09:18:10 51°14.61 2°54.827 333.8 9.19 343 -999
2008-11-12 09:18:50 51°14.713 2°54.798 333.8 9.19 343 -999
2008-11-12 09:19:30 51°14.815 2°54.78 347.6 9.3 354 -999
2008-11-12 09:20:10 51°14.918 2°54.757 345.3 9.4 351 -999
2008-11-12 09:20:50 51°15.022 2°54.73 345.3 9.4 351 -999
2008-11-12 09:21:30 51°15.125 2°54.703 344.3 9.5 350 -999
2008-11-12 09:22:10 51°15.228 2°54.671 341.6 9.4 348 -999
2008-11-12 09:22:50 51°15.331 2°54.634 341.6 9.4 348 -999
2008-11-12 09:23:30 51°15.432 2°54.594 339.6 9.3 346 -999
2008-11-12 09:24:10 51°15.531 2°54.554 339.3 9.09 345 -999
2008-11-12 09:24:50 51°15.63 2°54.513 339.3 9.09 345 -999
2008-11-12 09:25:30 51°15.729 2°54.473 339.6 9.09 346 -999
2008-11-12 09:26:10 51°15.831 2°54.433 340.3 9.4 346 -999
2008-11-12 09:26:50 51°15.931 2°54.397 340.3 9.4 346 -999
2008-11-12 09:27:30 51°16.006 2°54.372 340.1 8 348 -999
2008-11-12 09:28:10 51°16.065 2°54.358 338.1 5.09 351 -999
2008-11-12 09:28:50 51°16.115 2°54.345 338.1 5.09 351 -999
2008-11-12 09:29:30 51°16.158 2°54.328 331.8 4.2 348 -999
2008-11-12 09:30:10 51°16.191 2°54.303 312 3.1 332 -999
2008-11-12 09:30:50 51°16.216 2°54.279 312 3.1 332 -999
2008-11-12 09:31:30 51°16.233 2°54.273 298.3 1.6 339 -999
2008-11-12 09:32:10 51°16.245 2°54.282 303.6 1.19 34 -999
2008-11-12 09:32:50 51°16.254 2°54.3 303.6 1.19 34 -999
2008-11-12 09:33:30 51°16.262 2°54.325 316.5 1.5 63 -999
2008-11-12 09:34:10 51°16.268 2°54.353 331.5 1.89 70 -999
2008-11-12 09:34:50 51°16.273 2°54.384 331.5 1.89 70 -999
2008-11-12 09:35:30 51°16.277 2°54.414 351.8 1.69 78 -999
2008-11-12 09:36:10 51°16.28 2°54.445 7.9 1.8 79 -999
2008-11-12 09:36:50 51°16.282 2°54.475 7.9 1.8 79 -999
2008-11-12 09:37:30 51°16.285 2°54.506 19.3 1.69 81 -999
2008-11-12 09:38:10 51°16.288 2°54.537 21.1 1.6 80 -999
2008-11-12 09:38:50 51°16.292 2°54.568 21.1 1.6 80 -999
2008-11-12 09:39:30 51°16.296 2°54.601 19.1 1.89 79 -999
2008-11-12 09:40:10 51°16.31 2°54.633 6.7 2.29 48 -999
2008-11-12 09:40:50 51°16.336 2°54.651 6.7 2.29 48 -999
2008-11-12 09:41:30 51°16.358 2°54.634 321.8 2.5 353 -999
2008-11-12 09:42:10 51°16.351 2°54.604 248 2 237 -999
2008-11-12 09:42:50 51°16.323 2°54.571 248 2 237 -999
2008-11-12 09:43:30 51°16.293 2°54.527 231.4 3.6 222 -999
2008-11-12 09:44:10 51°16.27 2°54.472 240.4 3.79 241 -999
2008-11-12 09:44:50 51°16.266 2°54.402 240.4 3.79 241 -999
2008-11-12 09:45:30 51°16.257 2°54.34 261.6 3.79 264 -999
2008-11-12 09:46:10 51°16.243 2°54.309 241.5 1.8 229 -999
2008-11-12 09:46:50 51°16.232 2°54.308 241.5 1.8 229 -999
2008-11-12 09:47:30 51°16.227 2°54.323 226.6 1 130 -999
2008-11-12 09:48:10 51°16.225 2°54.346 227 1.5 100 -999
2008-11-12 09:48:50 51°16.225 2°54.375 227 1.5 100 -999
2008-11-12 09:49:30 51°16.228 2°54.408 220.5 1.8 88 -999
2008-11-12 09:50:10 51°16.23 2°54.444 205.4 2 77 -999
2008-11-12 09:50:50 51°16.235 2°54.48 205.4 2 77 -999
2008-11-12 09:51:30 51°16.24 2°54.517 187.4 2 77 -999
2008-11-12 09:52:10 51°16.237 2°54.551 181.1 1.89 104 -999
2008-11-12 09:52:50 51°16.223 2°54.568 181.1 1.89 104 -999
2008-11-12 09:53:30 51°16.214 2°54.553 221.5 1.39 196 -999
2008-11-12 09:54:10 51°16.226 2°54.536 285.6 1.6 331 -999
2008-11-12 09:54:50 51°16.249 2°54.511 285.6 1.6 331 -999
2008-11-12 09:55:30 51°16.256 2°54.473 283.8 2.5 304 -999
2008-11-12 09:56:10 51°16.25 2°54.432 254 2.29 257 -999
2008-11-12 09:56:50 51°16.249 2°54.393 254 2.29 257 -999
2008-11-12 09:57:30 51°16.26 2°54.365 269.3 2.29 291 -999
2008-11-12 09:58:10 51°16.273 2°54.36 282.6 1.1 349 -999
2008-11-12 09:58:50 51°16.281 2°54.376 282.6 1.1 349 -999
2008-11-12 09:59:30 51°16.289 2°54.403 269.3 1.69 65 -999
2008-11-12 10:00:10 51°16.296 2°54.437 260.1 2.1 73 -999
2008-11-12 10:00:50 51°16.303 2°54.476 260.1 2.1 73 -999
2008-11-12 10:01:30 51°16.311 2°54.519 246.1 2.5 73 -999
2008-11-12 10:02:10 51°16.32 2°54.564 228.3 2.6 70 -999
2008-11-12 10:02:50 51°16.326 2°54.603 228.3 2.6 70 -999
2008-11-12 10:03:30 51°16.31 2°54.592 213.8 1.3 147 -999
2008-11-12 10:04:10 51°16.304 2°54.527 261.3 4 266 -999
2008-11-12 10:04:50 51°16.282 2°54.462 261.3 4 266 -999
2008-11-12 10:05:30 51°16.272 2°54.41 243.3 3.5 245 -999
2008-11-12 10:06:10 51°16.267 2°54.37 253 2.2 255 -999
2008-11-12 10:06:50 51°16.254 2°54.333 253 2.2 255 -999
2008-11-12 10:07:30 51°16.247 2°54.317 242.8 2 241 -999
2008-11-12 10:08:10 51°16.249 2°54.338 243.8 1.6 78 -999
2008-11-12 10:08:50 51°16.253 2°54.369 243.8 1.6 78 -999
2008-11-12 10:09:30 51°16.257 2°54.405 237.6 2 75 -999
2008-11-12 10:10:10 51°16.262 2°54.444 215.5 2.29 79 -999
2008-11-12 10:10:50 51°16.268 2°54.484 215.5 2.29 79 -999
2008-11-12 10:11:30 51°16.267 2°54.52 194.5 2.2 76 -999
2008-11-12 10:12:10 51°16.251 2°54.516 223 1.6 209 -999
2008-11-12 10:12:50 51°16.253 2°54.472 223 1.6 209 -999
2008-11-12 10:13:30 51°16.255 2°54.405 269.3 3.6 280 -999
2008-11-12 10:14:10 51°16.255 2°54.344 261.1 3.29 273 -999
2008-11-12 10:14:50 51°16.257 2°54.303 261.1 3.29 273 -999
2008-11-12 10:15:30 51°16.26 2°54.302 257.6 0.8 283 -999
2008-11-12 10:16:10 51°16.267 2°54.325 265.6 1.39 72 -999
2008-11-12 10:16:50 51°16.273 2°54.356 265.6 1.39 72 -999
2008-11-12 10:17:30 51°16.28 2°54.394 261.1 2.2 72 -999
2008-11-12 10:18:10 51°16.288 2°54.436 241.5 2.5 72 -999
2008-11-12 10:18:50 51°16.298 2°54.481 241.5 2.5 72 -999
2008-11-12 10:19:30 51°16.302 2°54.516 219 2.6 71 -999
2008-11-12 10:20:10 51°16.294 2°54.491 245.1 2.1 255 -999
2008-11-12 10:20:50 51°16.281 2°54.429 245.1 2.1 255 -999
2008-11-12 10:21:30 51°16.261 2°54.357 240.1 4.4 239 -999
2008-11-12 10:22:10 51°16.26 2°54.31 259 2.5 270 -999
2008-11-12 10:22:50 51°16.264 2°54.302 259 2.5 270 -999
2008-11-12 10:23:30 51°16.27 2°54.323 258.3 1.19 56 -999
2008-11-12 10:24:10 51°16.276 2°54.351 249.5 1.8 72 -999
2008-11-12 10:24:50 51°16.282 2°54.384 249.5 1.8 72 -999
2008-11-12 10:25:30 51°16.289 2°54.422 234.5 2.2 74 -999
2008-11-12 10:26:10 51°16.296 2°54.46 209.5 2.29 75 -999
2008-11-12 10:26:50 51°16.287 2°54.479 209.5 2.29 75 -999
2008-11-12 10:27:30 51°16.279 2°54.433 228.5 1.89 225 -999
2008-11-12 10:28:10 51°16.263 2°54.361 247 4.5 242 -999
2008-11-12 10:28:50 51°16.24 2°54.309 247 4.5 242 -999
2008-11-12 10:29:30 51°16.239 2°54.294 246.5 1.8 249 -999
2008-11-12 10:30:10 51°16.246 2°54.32 268.5 1.8 67 -999
2008-11-12 10:30:50 51°16.253 2°54.354 268.5 1.8 67 -999
2008-11-12 10:31:30 51°16.261 2°54.393 264.3 2.29 74 -999
2008-11-12 10:32:10 51°16.27 2°54.436 251.3 2.5 73 -999
2008-11-12 10:32:50 51°16.281 2°54.479 251.3 2.5 73 -999
2008-11-12 10:33:30 51°16.293 2°54.524 233.9 2.6 65 -999
2008-11-12 10:34:10 51°16.304 2°54.563 214 2.39 62 -999
2008-11-12 10:34:50 51°16.299 2°54.573 214 2.39 62 -999
2008-11-12 10:35:30 51°16.297 2°54.549 242.6 1 246 -999
2008-11-12 10:36:10 51°16.29 2°54.512 248.5 2.39 254 -999
2008-11-12 10:36:50 51°16.268 2°54.475 248.5 2.39 254 -999
2008-11-12 10:37:30 51°16.26 2°54.43 232.6 3 235 -999
2008-11-12 10:38:10 51°16.263 2°54.384 263.3 2.6 278 -999
2008-11-12 10:38:50 51°16.252 2°54.36 263.3 2.6 278 -999
2008-11-12 10:39:30 51°16.249 2°54.333 240.3 1.69 245 -999
2008-11-12 10:40:10 51°16.255 2°54.322 263.1 0.69 316 -999
2008-11-12 10:40:50 51°16.264 2°54.336 263.1 0.69 316 -999
2008-11-12 10:41:30 51°16.273 2°54.359 270.5 1.39 58 -999
2008-11-12 10:42:10 51°16.282 2°54.387 273 1.89 63 -999
2008-11-12 10:42:50 51°16.291 2°54.421 273 1.89 63 -999
2008-11-12 10:43:30 51°16.301 2°54.458 276.3 2.29 68 -999
2008-11-12 10:44:10 51°16.311 2°54.499 279.1 2.5 66 -999
2008-11-12 10:44:50 51°16.322 2°54.524 279.1 2.5 66 -999
2008-11-12 10:45:30 51°16.321 2°54.519 265.1 0.8 22 -999
2008-11-12 10:46:10 51°16.298 2°54.496 224.6 2.79 215 -999
2008-11-12 10:46:50 51°16.273 2°54.456 224.6 2.79 215 -999
2008-11-12 10:47:30 51°16.263 2°54.396 240.8 3.39 248 -999
2008-11-12 10:48:10 51°16.255 2°54.34 251.4 3.2 255 -999
2008-11-12 10:48:50 51°16.249 2°54.303 251.4 3.2 255 -999
2008-11-12 10:49:30 51°16.254 2°54.306 255 0.8 283 -999
2008-11-12 10:50:10 51°16.263 2°54.332 274.3 1.8 59 -999
2008-11-12 10:50:50 51°16.273 2°54.365 274.3 1.8 59 -999
2008-11-12 10:51:30 51°16.284 2°54.402 283.3 2.2 65 -999
2008-11-12 10:52:10 51°16.293 2°54.443 296.1 2.5 70 -999
2008-11-12 10:52:50 51°16.303 2°54.485 296.1 2.5 70 -999
2008-11-12 10:53:30 51°16.32 2°54.51 318 2.29 67 -999
2008-11-12 10:54:10 51°16.337 2°54.499 283.3 1.5 322 -999
2008-11-12 10:54:50 51°16.326 2°54.488 283.3 1.5 322 -999
2008-11-12 10:55:30 51°16.295 2°54.474 212.9 2.5 191 -999
2008-11-12 10:56:10 51°16.272 2°54.438 233.1 2.89 230 -999
2008-11-12 10:56:50 51°16.267 2°54.384 233.1 2.89 230 -999
2008-11-12 10:57:30 51°16.258 2°54.331 256.3 3.29 263 -999
2008-11-12 10:58:10 51°16.246 2°54.304 238.6 1.8 221 -999
2008-11-12 10:58:50 51°16.242 2°54.316 238.6 1.8 221 -999
2008-11-12 10:59:30 51°16.248 2°54.348 220.4 1.69 84 -999
2008-11-12 11:00:10 51°16.254 2°54.382 201.6 1.89 71 -999
2008-11-12 11:00:50 51°16.261 2°54.418 201.6 1.89 71 -999
2008-11-12 11:01:30 51°16.268 2°54.454 186 2.1 72 -999
2008-11-12 11:02:10 51°16.275 2°54.49 176.5 2.1 72 -999
2008-11-12 11:02:50 51°16.282 2°54.526 176.5 2.1 72 -999
2008-11-12 11:03:30 51°16.283 2°54.56 173.8 2.2 73 -999
2008-11-12 11:04:10 51°16.269 2°54.567 210.8 1.3 179 -999
2008-11-12 11:04:50 51°16.266 2°54.54 210.8 1.3 179 -999
2008-11-12 11:05:30 51°16.268 2°54.497 266.8 2.39 283 -999
2008-11-12 11:06:10 51°16.257 2°54.449 244.4 3.1 248 -999
2008-11-12 11:06:50 51°16.251 2°54.391 244.4 3.1 248 -999
2008-11-12 11:07:30 51°16.251 2°54.328 256.8 3.6 266 -999
2008-11-12 11:08:10 51°16.259 2°54.294 266.3 1.6 296 -999
2008-11-12 11:08:50 51°16.27 2°54.309 266.3 1.6 296 -999
2008-11-12 11:09:30 51°16.281 2°54.34 294.8 1.8 56 -999
2008-11-12 11:10:10 51°16.29 2°54.375 325.1 2 68 -999
2008-11-12 11:10:50 51°16.298 2°54.41 325.1 2 68 -999
2008-11-12 11:11:30 51°16.306 2°54.445 341.8 2.2 69 -999
2008-11-12 11:12:10 51°16.313 2°54.48 359.8 2.1 73 -999
2008-11-12 11:12:50 51°16.32 2°54.515 359.8 2.1 73 -999
2008-11-12 11:13:30 51°16.337 2°54.551 16 2.1 66 -999
2008-11-12 11:14:10 51°16.371 2°54.572 344.6 3.39 17 -999
2008-11-12 11:14:50 51°16.401 2°54.56 344.6 3.39 17 -999
2008-11-12 11:15:30 51°16.393 2°54.528 280.1 2.5 294 -999
2008-11-12 11:16:10 51°16.348 2°54.512 204.5 4.7 193 -999
2008-11-12 11:16:50 51°16.3 2°54.465 204.5 4.7 193 -999
2008-11-12 11:17:30 51°16.267 2°54.393 233.6 4.9 234 -999
2008-11-12 11:18:10 51°16.245 2°54.314 244.3 4.79 248 -999
2008-11-12 11:18:50 51°16.243 2°54.267 244.3 4.79 248 -999
2008-11-12 11:19:30 51°16.248 2°54.252 260.6 1.5 283 -999
2008-11-12 11:20:10 51°16.256 2°54.255 272.1 0.8 29 -999
2008-11-12 11:20:50 51°16.265 2°54.269 272.1 0.8 29 -999
2008-11-12 11:21:30 51°16.273 2°54.291 276.6 1.39 50 -999
2008-11-12 11:22:10 51°16.281 2°54.321 279.6 1.89 71 -999
2008-11-12 11:22:50 51°16.29 2°54.356 279.6 1.89 71 -999
2008-11-12 11:23:30 51°16.298 2°54.395 285.6 2.2 69 -999
2008-11-12 11:24:10 51°16.304 2°54.437 304.6 2.5 75 -999
2008-11-12 11:24:50 51°16.309 2°54.478 304.6 2.5 75 -999
2008-11-12 11:25:30 51°16.313 2°54.516 329 2.29 80 -999
2008-11-12 11:26:10 51°16.317 2°54.552 353.6 2 81 -999
2008-11-12 11:26:50 51°16.32 2°54.584 353.6 2 81 -999
2008-11-12 11:27:30 51°16.326 2°54.615 13.4 1.8 74 -999
2008-11-12 11:28:10 51°16.338 2°54.654 30.6 2.7 59 -999
2008-11-12 11:28:50 51°16.359 2°54.719 30.6 2.7 59 -999
2008-11-12 11:29:30 51°16.389 2°54.821 68 5.5 66 -999
2008-11-12 11:30:10 51°16.435 2°54.955 60.7 8.9 59 -999
2008-11-12 11:30:50 51°16.485 2°55.103 60.7 8.9 59 -999
2008-11-12 11:31:30 51°16.534 2°55.256 62.2 9.69 63 -999
2008-11-12 11:32:10 51°16.576 2°55.426 69 10.5 72 -999
2008-11-12 11:32:50 51°16.613 2°55.62 69 10.5 72 -999
2008-11-12 11:33:30 51°16.641 2°55.828 76 11.9 76 -999
2008-11-12 11:34:10 51°16.663 2°56.036 83.4 12.19 78 -999
2008-11-12 11:34:50 51°16.684 2°56.257 83.4 12.19 78 -999
2008-11-12 11:35:30 51°16.702 2°56.467 84 12.3 80 -999
2008-11-12 11:36:10 51°16.728 2°56.704 84 13.4 77 -999
2008-11-12 11:36:50 51°16.753 2°56.941 84 13.4 77 -999
2008-11-12 11:37:30 51°16.766 2°57.171 84.9 13.4 83 -999
2008-11-12 11:38:10 51°16.775 2°57.408 89.7 13.5 87 -999
2008-11-12 11:38:50 51°16.783 2°57.645 89.7 13.5 87 -999
2008-11-12 11:39:30 51°16.789 2°57.881 90.7 13.59 84 -999
2008-11-12 11:40:10 51°16.797 2°58.117 89.2 13.4 91 -999
2008-11-12 11:40:50 51°16.806 2°58.34 89.2 13.4 91 -999
2008-11-12 11:41:30 51°16.793 2°58.482 92.7 9.5 93 -999
2008-11-12 11:42:10 51°16.776 2°58.582 118.2 5.59 104 -999
2008-11-12 11:42:50 51°16.763 2°58.667 118.2 5.59 104 -999
2008-11-12 11:43:30 51°16.749 2°58.743 122.7 4.59 107 -999
2008-11-12 11:44:10 51°16.738 2°58.816 119.7 4.2 103 -999
2008-11-12 11:44:50 51°16.73 2°58.888 119.7 4.2 103 -999
2008-11-12 11:45:30 51°16.722 2°58.952 117.4 4 101 -999
2008-11-12 11:46:10 51°16.715 2°59.004 129 2.89 100 -999
2008-11-12 11:46:50 51°16.71 2°59.047 129 2.89 100 -999
2008-11-12 11:47:30 51°16.707 2°59.085 138.9 2.29 97 -999
2008-11-12 11:48:10 51°16.703 2°59.12 150 2 99 -999
2008-11-12 11:48:50 51°16.695 2°59.154 150 2 99 -999
2008-11-12 11:49:30 51°16.69 2°59.186 160.4 1.89 105 -999
2008-11-12 11:50:10 51°16.688 2°59.217 163.1 1.89 92 -999
2008-11-12 11:50:50 51°16.687 2°59.244 163.1 1.89 92 -999
2008-11-12 11:51:30 51°16.689 2°59.27 176.1 1.3 87 -999
2008-11-12 11:52:10 51°16.692 2°59.294 185.8 1.39 78 -999
2008-11-12 11:52:50 51°16.693 2°59.318 185.8 1.39 78 -999
2008-11-12 11:53:30 51°16.679 2°59.318 193.6 1.19 126 -999
2008-11-12 11:54:10 51°16.661 2°59.246 248.4 4.9 256 -999
2008-11-12 11:54:50 51°16.641 2°59.124 248.4 4.9 256 -999
2008-11-12 11:55:30 51°16.609 2°58.969 250.5 8.8 253 -999
2008-11-12 11:56:10 51°16.57 2°58.794 248 10.3 250 -999
2008-11-12 11:56:50 51°16.534 2°58.622 248 10.3 250 -999
2008-11-12 11:57:30 51°16.496 2°58.445 248.5 10.59 251 -999
2008-11-12 11:58:10 51°16.46 2°58.268 249 10.59 254 -999
2008-11-12 11:58:50 51°16.422 2°58.091 249 10.59 254 -999
2008-11-12 11:59:30 51°16.384 2°57.915 248.5 10.5 251 -999
2008-11-12 12:00:19 51°16.338 2°57.692 249.2 10.6 251 11.6
2008-11-12 12:01:19 51°16.277 2°57.43 245.2 10.5 248 11.5
2008-11-12 12:02:20 51°16.205 2°57.171 243.7 10.5 246 11.6
2008-11-12 12:03:19 51°16.136 2°56.92 244.7 10.5 249 11.5
2008-11-12 12:04:20 51°16.06 2°56.666 241.1 10.4 243 11.6
2008-11-12 12:05:19 51°15.984 2°56.42 242.8 10.6 245 11.6
2008-11-12 12:06:19 51°15.91 2°56.168 243.1 10.5 244 11.7
2008-11-12 12:07:19 51°15.837 2°55.917 243.1 10.4 245 11.7
2008-11-12 12:08:19 51°15.767 2°55.665 243 10.4 246 12
2008-11-12 12:09:19 51°15.698 2°55.413 242.7 10.4 245 11.9
2008-11-12 12:10:19 51°15.626 2°55.164 242.3 10.3 247 12.1
2008-11-12 12:11:19 51°15.559 2°54.91 244.8 10.4 248 12
2008-11-12 12:12:19 51°15.493 2°54.654 244.5 10.5 249 12
2008-11-12 12:13:19 51°15.415 2°54.41 237.6 10.4 241 12.1
2008-11-12 12:14:19 51°15.306 2°54.211 211.4 10 211 12.1
2008-11-12 12:15:19 51°15.134 2°54.191 172.7 11 176 11.9
2008-11-12 12:16:19 51°14.955 2°54.288 157.7 11.6 155 11.5
2008-11-12 12:17:19 51°14.798 2°54.471 147.1 11.7 142 12.6
2008-11-12 12:18:19 51°14.644 2°54.663 152.2 11.8 143 12.6
2008-11-12 12:19:19 51°14.481 2°54.841 146.4 12.2 138 13.6
2008-11-12 12:20:20 51°14.341 2°55.081 130.1 11.7 124 13.6
2008-11-12 12:21:19 51°14.257 2°55.258 125.8 6.3 129 13.3
2008-11-12 12:22:20 51°14.194 2°55.358 141.3 4.7 143 13.7
2008-11-12 12:23:19 51°14.131 2°55.429 144.7 4.8 146 13.5
2008-11-12 12:24:19 51°14.059 2°55.493 153.8 5 155 13.4
2008-11-12 12:25:19 51°13.981 2°55.545 158.1 5.2 159 13.7
2008-11-12 12:26:19 51°13.899 2°55.592 158.2 5.3 159 13.9
2008-11-12 12:27:19 51°13.819 2°55.644 153 5.2 152 14.3
2008-11-12 12:28:19 51°13.752 2°55.727 134.9 5.1 135 13.2
2008-11-12 12:29:19 51°13.697 2°55.834 124.9 5.3 126 12.3
2008-11-12 12:30:19 51°13.649 2°55.941 122.6 4.1 122 13.2
2008-11-12 12:31:20 51°13.631 2°56.023 100.4 2.2 102 10.7
2008-11-12 12:32:19 51°13.626 2°56.041 121.8 0.6 140 10.3
2008-11-12 12:33:19 51°13.623 2°56.047 126.7 0.1 90 10.5
2008-11-12 12:35:29 51°13.623 2°56.048 123 0.1 138 10.4